Gil Vicente — CSKG — position and weather

sailwx.info

Track history (hours):
 
Tides and Currents Weather Stations Pressure Air Temp Water Temp Dewpoint Dewpoint Depression Visibility Wind Speed Wind Dir Waves Ship Positions

Gil Vicente

Last reported at 2014-Sep-16 18:34 UTC. Time now 2014-Sep-16 19:30 UTC.
Position N 38°42' W 009°08'.

Length 49 m.

Type: Passenger vessel. MMSI: 263701390.

Date/timePositionNaut miles runAvg speedWind from/ knotsBaromVisibWave heightAir tempDewpointWater temp
2014-Sep-16 18:34N 38°42' W 009°08'0 0.1
2014-Sep-16 17:34N 38°42' W 009°08'3 3.1
2014-Sep-16 16:34N 38°40' W 009°06'1 0.8
2014-Sep-16 15:33N 38°39' W 009°05'1 0.8
2014-Sep-16 14:33N 38°40' W 009°06'1 1.2
2014-Sep-16 13:33N 38°39' W 009°05'0 0.0
2014-Sep-16 12:33N 38°39' W 009°05'0 0.0
2014-Sep-16 11:33N 38°39' W 009°05'0 0.0
2014-Sep-16 10:33N 38°39' W 009°05'1 1.4
2014-Sep-16 09:34N 38°40' W 009°06'0 0.0
2014-Sep-16 08:34N 38°40' W 009°06'0 0.4
2014-Sep-16 07:34N 38°40' W 009°07'2 1.9
2014-Sep-16 06:33N 38°39' W 009°05'0 0.0
2014-Sep-16 05:34N 38°39' W 009°05'0 0.0
2014-Sep-16 04:34N 38°39' W 009°05'4 0.6
2014-Sep-15 22:33N 38°42' W 009°08'1 0.7
2014-Sep-15 21:33N 38°41' W 009°08'0 0.3
2014-Sep-15 20:34N 38°41' W 009°08'3 2.9
2014-Sep-15 19:33N 38°39' W 009°05'0 0.3
2014-Sep-15 18:34N 38°39' W 009°05'0 0.4
2014-Sep-15 17:34N 38°39' W 009°05'1 1.0
2014-Sep-15 16:34N 38°39' W 009°06'1 0.9
2014-Sep-15 15:33N 38°39' W 009°05'0 0.0
2014-Sep-15 08:33N 38°39' W 009°05'0 0.2
2014-Sep-15 07:33N 38°39' W 009°05'0 0.3
2014-Sep-15 06:33N 38°39' W 009°05'0 0.0
2014-Sep-15 05:33N 38°39' W 009°05'3 0.1
2014-Sep-13 20:34N 38°41' W 009°08'3 2.9
2014-Sep-13 19:34N 38°39' W 009°05'2 1.8
2014-Sep-13 18:33N 38°40' W 009°07'0 0.0
2014-Sep-13 17:33N 38°40' W 009°07'0 0.2
2014-Sep-13 16:34N 38°40' W 009°06'0 0.0
2014-Sep-13 15:34N 38°40' W 009°07'0 0.3
2014-Sep-13 14:33N 38°40' W 009°06'0 0.0
2014-Sep-13 13:33N 38°40' W 009°06'0 0.4
2014-Sep-13 12:34N 38°39' W 009°06'2 0.7
2014-Sep-13 09:33N 38°41' W 009°08'0 0.2
2014-Sep-13 08:34N 38°41' W 009°08'0 0.0
2014-Sep-13 07:34N 38°41' W 009°08'3 2.8
2014-Sep-13 06:34N 38°39' W 009°05'1 0.5
2014-Sep-13 05:33N 38°39' W 009°05'0 0.5
2014-Sep-13 04:33N 38°39' W 009°05'4 0.6
2014-Sep-12 22:34N 38°42' W 009°08'1 0.8
2014-Sep-12 21:34N 38°41' W 009°08'0 0.2
2014-Sep-12 20:34N 38°41' W 009°08'3 2.8
2014-Sep-12 19:33N 38°39' W 009°05'0 0.2
2014-Sep-12 18:34N 38°39' W 009°05'0 0.3
2014-Sep-12 17:33N 38°39' W 009°05'2 1.8
2014-Sep-12 16:33N 38°40' W 009°07'2 1.7
2014-Sep-12 15:33N 38°39' W 009°05'0 0.0
2014-Sep-12 10:08N 38°39' W 009°05'0 0.0
2014-Sep-12 09:33N 38°39' W 009°05'4 4.0
2014-Sep-12 08:33N 38°42' W 009°08'0 0.0
2014-Sep-12 07:33N 38°42' W 009°08'3 2.6
2014-Sep-12 06:34N 38°40' W 009°07'2 0.1
2014-Sep-11 09:26N 38°39' W 009°05'4 4.7
2014-Sep-11 08:34N 38°42' W 009°08'0 0.1
2014-Sep-11 07:33N 38°42' W 009°08'3 2.6
2014-Sep-11 06:33N 38°40' W 009°07'2 0.1
2014-Sep-10 11:06N 38°39' W 009°05'3 5.2
2014-Sep-10 10:33N 38°41' W 009°08'3 2.8
2014-Sep-10 09:33N 38°39' W 009°05'  
Track history (hours):
 
Tides and Currents Weather Stations Pressure Air Temp Water Temp Dewpoint Dewpoint Depression Visibility Wind Speed Wind Dir Waves Ship Positions

Gil Vicente

Last reported at 2014-Sep-16 18:34 UTC. Time now 2014-Sep-16 19:30 UTC.
Position N 38°42' W 009°08'.

Length 49 m.

Type: Passenger vessel. MMSI: 263701390.

Date/timePositionNaut miles runAvg speedWind from/ knotsBaromVisibWave heightAir tempDewpointWater temp
2014-Sep-16 18:34N 38°42' W 009°08'0 0.1
2014-Sep-16 17:34N 38°42' W 009°08'3 3.1
2014-Sep-16 16:34N 38°40' W 009°06'1 0.8
2014-Sep-16 15:33N 38°39' W 009°05'1 0.8
2014-Sep-16 14:33N 38°40' W 009°06'1 1.2
2014-Sep-16 13:33N 38°39' W 009°05'0 0.0
2014-Sep-16 12:33N 38°39' W 009°05'0 0.0
2014-Sep-16 11:33N 38°39' W 009°05'0 0.0
2014-Sep-16 10:33N 38°39' W 009°05'1 1.4
2014-Sep-16 09:34N 38°40' W 009°06'0 0.0
2014-Sep-16 08:34N 38°40' W 009°06'0 0.4
2014-Sep-16 07:34N 38°40' W 009°07'2 1.9
2014-Sep-16 06:33N 38°39' W 009°05'0 0.0
2014-Sep-16 05:34N 38°39' W 009°05'0 0.0
2014-Sep-16 04:34N 38°39' W 009°05'4 0.6
2014-Sep-15 22:33N 38°42' W 009°08'1 0.7
2014-Sep-15 21:33N 38°41' W 009°08'0 0.3
2014-Sep-15 20:34N 38°41' W 009°08'3 2.9
2014-Sep-15 19:33N 38°39' W 009°05'0 0.3
2014-Sep-15 18:34N 38°39' W 009°05'0 0.4
2014-Sep-15 17:34N 38°39' W 009°05'1 1.0
2014-Sep-15 16:34N 38°39' W 009°06'1 0.9
2014-Sep-15 15:33N 38°39' W 009°05'0 0.0
2014-Sep-15 08:33N 38°39' W 009°05'0 0.2
2014-Sep-15 07:33N 38°39' W 009°05'0 0.3
2014-Sep-15 06:33N 38°39' W 009°05'0 0.0
2014-Sep-15 05:33N 38°39' W 009°05'3 0.1
2014-Sep-13 20:34N 38°41' W 009°08'3 2.9
2014-Sep-13 19:34N 38°39' W 009°05'2 1.8
2014-Sep-13 18:33N 38°40' W 009°07'0 0.0
2014-Sep-13 17:33N 38°40' W 009°07'0 0.2
2014-Sep-13 16:34N 38°40' W 009°06'0 0.0
2014-Sep-13 15:34N 38°40' W 009°07'0 0.3
2014-Sep-13 14:33N 38°40' W 009°06'0 0.0
2014-Sep-13 13:33N 38°40' W 009°06'0 0.4
2014-Sep-13 12:34N 38°39' W 009°06'2 0.7
2014-Sep-13 09:33N 38°41' W 009°08'0 0.2
2014-Sep-13 08:34N 38°41' W 009°08'0 0.0
2014-Sep-13 07:34N 38°41' W 009°08'3 2.8
2014-Sep-13 06:34N 38°39' W 009°05'1 0.5
2014-Sep-13 05:33N 38°39' W 009°05'0 0.5
2014-Sep-13 04:33N 38°39' W 009°05'4 0.6
2014-Sep-12 22:34N 38°42' W 009°08'1 0.8
2014-Sep-12 21:34N 38°41' W 009°08'0 0.2
2014-Sep-12 20:34N 38°41' W 009°08'3 2.8
2014-Sep-12 19:33N 38°39' W 009°05'0 0.2
2014-Sep-12 18:34N 38°39' W 009°05'0 0.3
2014-Sep-12 17:33N 38°39' W 009°05'2 1.8
2014-Sep-12 16:33N 38°40' W 009°07'2 1.7
2014-Sep-12 15:33N 38°39' W 009°05'0 0.0
2014-Sep-12 10:08N 38°39' W 009°05'0 0.0
2014-Sep-12 09:33N 38°39' W 009°05'4 4.0
2014-Sep-12 08:33N 38°42' W 009°08'0 0.0
2014-Sep-12 07:33N 38°42' W 009°08'3 2.6
2014-Sep-12 06:34N 38°40' W 009°07'2 0.1
2014-Sep-11 09:26N 38°39' W 009°05'4 4.7
2014-Sep-11 08:34N 38°42' W 009°08'0 0.1
2014-Sep-11 07:33N 38°42' W 009°08'3 2.6
2014-Sep-11 06:33N 38°40' W 009°07'2 0.1
2014-Sep-10 11:06N 38°39' W 009°05'3 5.2
2014-Sep-10 10:33N 38°41' W 009°08'3 2.8
2014-Sep-10 09:33N 38°39' W 009°05'  

Dump ship's entire track history